This is the latest recevied weather packets stored in our database for station/object KC9ZAR-13. If no packets are shown the sender has not sent any weather packets the latest 10 day(s).
| Time | Temp. | Humidity | Pressure | Rain* | Wind** | Luminosity | Snow |
|---|---|---|---|---|---|---|---|
| 1777419605 | 20° C | 73% | 1011.3 hPa | 0 mm | - | 0 W/m² | - |
| 1777418405 | 20° C | 72% | 1011.3 hPa | 0 mm | - | 0 W/m² | - |
| 1777418104 | 20.56° C | 72% | 1011.4 hPa | 0 mm | - | 0 W/m² | - |
| 1777412105 | 21.11° C | 69% | 1011.2 hPa | 0 mm | - | 0 W/m² | - |
| 1777411505 | 21.11° C | 68% | 1011.4 hPa | 0 mm | - | 0 W/m² | - |
| 1777410904 | 21.11° C | 68% | 1011.6 hPa | 0 mm | - | 0 W/m² | - |
| 1777409404 | 21.11° C | 67% | 1011.4 hPa | 0 mm | - | 0 W/m² | - |
| 1777408804 | 21.67° C | 66% | 1011.6 hPa | 0 mm | - | 0 W/m² | - |
| 1777408205 | 21.67° C | 68% | 1011.9 hPa | 0 mm | - | 0 W/m² | - |
| 1777407308 | 21.11° C | 68% | 1012.1 hPa | 0 mm | - | 0 W/m² | - |
| 1777406705 | 21.67° C | 66% | 1012.4 hPa | 0 mm | - | 0 W/m² | - |
| 1777404004 | 21.67° C | 68% | 1012.9 hPa | 0 mm | - | 0 W/m² | - |
| 1777403404 | 21.67° C | 68% | 1013.1 hPa | 0 mm | - | 0 W/m² | - |
| 1777402204 | 20.56° C | 68% | 1013.4 hPa | 0 mm | - | 0 W/m² | - |
| 1777401304 | 20.56° C | 68% | 1013.4 hPa | 0 mm | - | 0 W/m² | - |
| 1777400704 | 20.56° C | 69% | 1013.3 hPa | 0 mm | - | 0 W/m² | - |
| 1777400105 | 20° C | 71% | 1013.3 hPa | 0 mm | - | 0 W/m² | - |
| 1777397706 | 20° C | 72% | 1013.8 hPa | 0 mm | - | 0 W/m² | - |
| 1777395007 | 18.89° C | 73% | 1014 hPa | 0 mm | - | 0 W/m² | - |
| 1777392606 | 18.33° C | 75% | 1014 hPa | 0 mm | - | 0 W/m² | - |
| 1777391405 | 18.33° C | 75% | 1014.1 hPa | 0 mm | - | 0 W/m² | - |
| 1777391106 | 18.33° C | 78% | 1014 hPa | 0 mm | - | 0 W/m² | - |
| 1777390806 | 17.78° C | 77% | 1014.1 hPa | 0 mm | - | 0 W/m² | - |
| 1777385106 | 17.22° C | 88% | 1012.9 hPa | 0 mm | - | 0 W/m² | - |
| 1777383005 | 16.11° C | 95% | 1013 hPa | 0 mm | - | 0 W/m² | - |
* Rain latest hour (hover to see other rain measurements)
** Current wind speed in m/s (hover to see current wind gust speed)